MSC Vienna — A8CI9 — position and weather

sailwx.info

Track history (hours):
 
Tides and Currents Weather Stations Pressure Air Temp Water Temp Dewpoint Dewpoint Depression Visibility Wind Speed Wind Dir Waves Ship Positions

MSC Vienna

Last reported at 2016-Aug-26 08:31 UTC. Time now 2016-Aug-29 08:56 UTC.
Position N 35°36' W 009°02'.

Length 260.1 m; beam 32.2 m; draft 12 m.

Type: Ship (hazmat cat A). MMSI: 636090654.

Date/timePositionNaut miles runAvg speedWind from/ knotsBaromVisibWave heightAir tempDewpointWater temp
2016-Aug-26 08:31N 35°36' W 009°02'16917.0
2016-Aug-25 22:33N 35°58' W 005°35'1716.5
2016-Aug-25 21:33N 36°02' W 005°16'32113.9
2016-Aug-24 22:31N 39°31' W 000°07'9 8.5
2016-Aug-24 21:30N 39°39' W 000°13'0 0.0
2016-Aug-24 20:24N 39°39' W 000°13'0 0.0
2016-Aug-24 19:30N 39°39' W 000°13'0 0.0
2016-Aug-24 18:30N 39°39' W 000°13'0 0.0
2016-Aug-24 17:29N 39°39' W 000°13'0 0.0
2016-Aug-24 16:29N 39°39' W 000°13'0 0.0
2016-Aug-24 15:30N 39°39' W 000°13'0 0.0
2016-Aug-24 14:18N 39°39' W 000°13'0 0.0
2016-Aug-24 13:29N 39°39' W 000°13'0 0.0
2016-Aug-24 12:17N 39°39' W 000°13'0 0.0
2016-Aug-24 11:17N 39°39' W 000°13'0 0.0
2016-Aug-24 10:30N 39°39' W 000°13'0 0.0
2016-Aug-24 09:29N 39°39' W 000°13'0 0.0
2016-Aug-24 08:30N 39°39' W 000°13'0 0.0
2016-Aug-24 07:30N 39°39' W 000°13'0 0.0
2016-Aug-24 06:30N 39°39' W 000°13'0 0.0
2016-Aug-24 04:12N 39°39' W 000°13'0 0.0
2016-Aug-24 03:06N 39°39' W 000°13'0 0.0
2016-Aug-24 02:29N 39°39' W 000°13'0 0.0
2016-Aug-23 23:30N 39°39' W 000°13'0 0.0
2016-Aug-23 22:23N 39°39' W 000°13'63 8.8
2016-Aug-23 15:14N 40°05' E 001°02'1012.9
2016-Aug-23 14:26N 40°13' E 001°09'1112.8
2016-Aug-23 13:33N 40°23' E 001°16'1312.7
2016-Aug-23 12:33N 40°34' E 001°24'1312.5
2016-Aug-23 11:32N 40°44' E 001°35'1612.7
2016-Aug-23 10:15N 40°57' E 001°49'912.8
2016-Aug-23 09:33N 41°04' E 001°56'1312.8
2016-Aug-23 08:33N 41°13' E 002°07'8 1.5
2016-Aug-23 03:05N 41°21' E 002°10'0 0.0
2016-Aug-22 15:33N 41°21' E 002°10'19 8.1
2016-Aug-22 13:13N 41°23' E 002°35'711.3
2016-Aug-22 12:33N 41°26' E 002°44'1211.6
2016-Aug-22 11:31N 41°32' E 002°58'1111.7
2016-Aug-22 10:33N 41°37' E 003°12'17012.1
2016-Aug-21 20:33N 42°55' E 006°35'1813.5
2016-Aug-21 19:11N 43°06' E 006°55'813.2
2016-Aug-21 18:33N 43°11' E 007°05'1413.0
2016-Aug-21 17:28N 43°19' E 007°20'1813.0
2016-Aug-21 16:03N 43°30' E 007°41'4612.8
2016-Aug-21 12:29N 44°01' E 008°27'1212.5
2016-Aug-21 11:33N 44°11' E 008°36'1212.2
2016-Aug-21 10:33N 44°22' E 008°42'5 4.0
2016-Aug-21 09:26N 44°25' E 008°47'0 0.0
2016-Aug-21 08:32N 44°25' E 008°47'0 0.0
2016-Aug-21 07:29N 44°25' E 008°47'0 0.0
2016-Aug-21 06:26N 44°25' E 008°47'0 0.0
2016-Aug-21 05:32N 44°25' E 008°47'0 0.0
2016-Aug-21 04:32N 44°25' E 008°47'0 0.0
2016-Aug-21 03:32N 44°25' E 008°47'0 0.0
2016-Aug-21 02:29N 44°25' E 008°47'0 0.0
2016-Aug-21 01:32N 44°25' E 008°47'0 0.0
2016-Aug-21 00:32N 44°25' E 008°47'0 0.0
2016-Aug-20 23:32N 44°25' E 008°47'0 0.0
2016-Aug-20 22:32N 44°25' E 008°47'0 0.0
2016-Aug-20 21:32N 44°25' E 008°47'0 0.0
2016-Aug-20 20:32N 44°25' E 008°47'0 0.0
2016-Aug-20 19:29N 44°25' E 008°47'0 0.0
2016-Aug-20 18:29N 44°25' E 008°47'0 0.0
2016-Aug-20 17:29N 44°25' E 008°47'0 0.0
2016-Aug-20 16:32N 44°25' E 008°47'0 0.0
2016-Aug-20 15:32N 44°25' E 008°47'0 0.0
2016-Aug-20 14:32N 44°25' E 008°47'0 0.0
2016-Aug-20 13:32N 44°25' E 008°47'0 0.0
2016-Aug-20 12:32N 44°25' E 008°47'0 0.0
2016-Aug-20 11:32N 44°25' E 008°47'0 0.0
2016-Aug-20 10:32N 44°25' E 008°47'0 0.0
2016-Aug-20 09:32N 44°25' E 008°47'0 0.0
2016-Aug-20 08:29N 44°25' E 008°47'0 0.0
2016-Aug-20 07:29N 44°25' E 008°47'0 0.0
2016-Aug-20 06:33N 44°25' E 008°47'1 1.3
2016-Aug-20 05:33N 44°24' E 008°46'0 0.2
2016-Aug-20 04:28N 44°24' E 008°46'0 0.0
2016-Aug-20 03:28N 44°24' E 008°46'0 0.0
2016-Aug-20 02:28N 44°24' E 008°46'0 0.0
2016-Aug-20 01:28N 44°24' E 008°46'0 0.0
2016-Aug-20 00:28N 44°24' E 008°46'0 0.0
2016-Aug-19 23:31N 44°24' E 008°46'0 0.0
2016-Aug-19 22:31N 44°24' E 008°46'0 0.0
2016-Aug-19 21:31N 44°24' E 008°46'0 0.0
2016-Aug-19 20:31N 44°24' E 008°46'0 0.0
2016-Aug-19 19:31N 44°24' E 008°46'3 2.7
2016-Aug-19 18:33N 44°22' E 008°44'1211.9
2016-Aug-19 17:33N 44°13' E 008°55'1312.7
2016-Aug-19 16:33N 44°05' E 009°08'1212.3
2016-Aug-19 15:33N 43°56' E 009°21'1212.0
2016-Aug-19 14:33N 43°48' E 009°33'1211.7
2016-Aug-19 13:33N 43°41' E 009°45'1212.0
2016-Aug-19 12:33N 43°32' E 009°57'1111.2
2016-Aug-19 11:33N 43°31' E 010°12'6 5.9
2016-Aug-19 10:33N 43°35' E 010°18'0 0.0
2016-Aug-19 09:25N 43°35' E 010°18'0 0.0
2016-Aug-19 08:28N 43°35' E 010°18'0 0.0
2016-Aug-19 07:31N 43°35' E 010°18'0 0.0
2016-Aug-19 06:31N 43°35' E 010°18'0 0.0
2016-Aug-19 05:31N 43°35' E 010°18'0 0.0
2016-Aug-19 04:31N 43°35' E 010°18'0 0.0
2016-Aug-19 03:31N 43°35' E 010°18'0 0.0
2016-Aug-19 02:28N 43°35' E 010°18'0 0.0
2016-Aug-19 01:28N 43°35' E 010°18'0 0.0
2016-Aug-19 00:25N 43°35' E 010°18'0 0.0
2016-Aug-18 23:31N 43°35' E 010°18'0 0.0
2016-Aug-18 22:31N 43°35' E 010°18'0 0.0
2016-Aug-18 21:31N 43°35' E 010°18'0 0.0
2016-Aug-18 20:34N 43°35' E 010°18'0 0.0
2016-Aug-18 19:31N 43°35' E 010°18'0 0.0
2016-Aug-18 18:31N 43°35' E 010°18'0 0.0
2016-Aug-18 17:25N 43°35' E 010°18'0 0.0
2016-Aug-18 16:31N 43°35' E 010°18'0 0.0
2016-Aug-18 15:28N 43°35' E 010°18'0 0.0
2016-Aug-18 14:31N 43°35' E 010°18'0 0.0
2016-Aug-18 13:31N 43°35' E 010°18'0 0.0
2016-Aug-18 12:31N 43°35' E 010°18'0 0.0
2016-Aug-18 11:31N 43°35' E 010°18'0 0.0
2016-Aug-18 10:31N 43°35' E 010°18'0 0.0
2016-Aug-18 09:31N 43°35' E 010°18'0 0.0
2016-Aug-18 08:28N 43°35' E 010°18'0 0.0
2016-Aug-18 07:34N 43°35' E 010°18'3 2.9
2016-Aug-18 06:33N 43°32' E 010°16'1 1.4
2016-Aug-18 05:32N 43°30' E 010°16'0 0.0
2016-Aug-18 04:32N 43°30' E 010°16'0 0.0
2016-Aug-18 03:32N 43°30' E 010°16'0 0.0
2016-Aug-18 02:32N 43°30' E 010°16'0 0.1
2016-Aug-18 01:33N 43°30' E 010°16'10 9.9
2016-Aug-18 00:33N 43°21' E 010°11'1212.4
2016-Aug-17 23:33N 43°09' E 010°07'24912.4
2016-Aug-17 03:24N 39°01' E 009°44'1212.6
2016-Aug-17 02:27N 38°58' E 009°29'1213.1
2016-Aug-17 01:33N 39°04' E 009°15'1010.1
2016-Aug-17 00:33N 39°11' E 009°06'2 2.0
2016-Aug-16 23:31N 39°13' E 009°05'0 0.0
2016-Aug-16 22:31N 39°13' E 009°05'0 0.0
2016-Aug-16 21:31N 39°13' E 009°05'0 0.0
2016-Aug-16 20:31N 39°13' E 009°05'0 0.0
2016-Aug-16 19:31N 39°13' E 009°05'0 0.0
2016-Aug-16 18:31N 39°13' E 009°05'0 0.0
2016-Aug-16 17:31N 39°13' E 009°05'0 0.0
2016-Aug-16 16:28N 39°13' E 009°05'0 0.0
2016-Aug-16 15:31N 39°13' E 009°05'0 0.0
2016-Aug-16 14:31N 39°13' E 009°05'0 0.0
2016-Aug-16 13:31N 39°13' E 009°05'0 0.0
2016-Aug-16 12:31N 39°13' E 009°05'0 0.0
2016-Aug-16 11:31N 39°13' E 009°05'0 0.0
2016-Aug-16 10:31N 39°13' E 009°05'0 0.0
2016-Aug-16 09:28N 39°13' E 009°05'  
Track history (hours):
 
Tides and Currents Weather Stations Pressure Air Temp Water Temp Dewpoint Dewpoint Depression Visibility Wind Speed Wind Dir Waves Ship Positions

MSC Vienna

Last reported at 2016-Aug-26 08:31 UTC. Time now 2016-Aug-29 08:56 UTC.
Position N 35°36' W 009°02'.

Length 260.1 m; beam 32.2 m; draft 12 m.

Type: Ship (hazmat cat A). MMSI: 636090654.

Date/timePositionNaut miles runAvg speedWind from/ knotsBaromVisibWave heightAir tempDewpointWater temp
2016-Aug-26 08:31N 35°36' W 009°02'16917.0
2016-Aug-25 22:33N 35°58' W 005°35'1716.5
2016-Aug-25 21:33N 36°02' W 005°16'32113.9
2016-Aug-24 22:31N 39°31' W 000°07'9 8.5
2016-Aug-24 21:30N 39°39' W 000°13'0 0.0
2016-Aug-24 20:24N 39°39' W 000°13'0 0.0
2016-Aug-24 19:30N 39°39' W 000°13'0 0.0
2016-Aug-24 18:30N 39°39' W 000°13'0 0.0
2016-Aug-24 17:29N 39°39' W 000°13'0 0.0
2016-Aug-24 16:29N 39°39' W 000°13'0 0.0
2016-Aug-24 15:30N 39°39' W 000°13'0 0.0
2016-Aug-24 14:18N 39°39' W 000°13'0 0.0
2016-Aug-24 13:29N 39°39' W 000°13'0 0.0
2016-Aug-24 12:17N 39°39' W 000°13'0 0.0
2016-Aug-24 11:17N 39°39' W 000°13'0 0.0
2016-Aug-24 10:30N 39°39' W 000°13'0 0.0
2016-Aug-24 09:29N 39°39' W 000°13'0 0.0
2016-Aug-24 08:30N 39°39' W 000°13'0 0.0
2016-Aug-24 07:30N 39°39' W 000°13'0 0.0
2016-Aug-24 06:30N 39°39' W 000°13'0 0.0
2016-Aug-24 04:12N 39°39' W 000°13'0 0.0
2016-Aug-24 03:06N 39°39' W 000°13'0 0.0
2016-Aug-24 02:29N 39°39' W 000°13'0 0.0
2016-Aug-23 23:30N 39°39' W 000°13'0 0.0
2016-Aug-23 22:23N 39°39' W 000°13'63 8.8
2016-Aug-23 15:14N 40°05' E 001°02'1012.9
2016-Aug-23 14:26N 40°13' E 001°09'1112.8
2016-Aug-23 13:33N 40°23' E 001°16'1312.7
2016-Aug-23 12:33N 40°34' E 001°24'1312.5
2016-Aug-23 11:32N 40°44' E 001°35'1612.7
2016-Aug-23 10:15N 40°57' E 001°49'912.8
2016-Aug-23 09:33N 41°04' E 001°56'1312.8
2016-Aug-23 08:33N 41°13' E 002°07'8 1.5
2016-Aug-23 03:05N 41°21' E 002°10'0 0.0
2016-Aug-22 15:33N 41°21' E 002°10'19 8.1
2016-Aug-22 13:13N 41°23' E 002°35'711.3
2016-Aug-22 12:33N 41°26' E 002°44'1211.6
2016-Aug-22 11:31N 41°32' E 002°58'1111.7
2016-Aug-22 10:33N 41°37' E 003°12'17012.1
2016-Aug-21 20:33N 42°55' E 006°35'1813.5
2016-Aug-21 19:11N 43°06' E 006°55'813.2
2016-Aug-21 18:33N 43°11' E 007°05'1413.0
2016-Aug-21 17:28N 43°19' E 007°20'1813.0
2016-Aug-21 16:03N 43°30' E 007°41'4612.8
2016-Aug-21 12:29N 44°01' E 008°27'1212.5
2016-Aug-21 11:33N 44°11' E 008°36'1212.2
2016-Aug-21 10:33N 44°22' E 008°42'5 4.0
2016-Aug-21 09:26N 44°25' E 008°47'0 0.0
2016-Aug-21 08:32N 44°25' E 008°47'0 0.0
2016-Aug-21 07:29N 44°25' E 008°47'0 0.0
2016-Aug-21 06:26N 44°25' E 008°47'0 0.0
2016-Aug-21 05:32N 44°25' E 008°47'0 0.0
2016-Aug-21 04:32N 44°25' E 008°47'0 0.0
2016-Aug-21 03:32N 44°25' E 008°47'0 0.0
2016-Aug-21 02:29N 44°25' E 008°47'0 0.0
2016-Aug-21 01:32N 44°25' E 008°47'0 0.0
2016-Aug-21 00:32N 44°25' E 008°47'0 0.0
2016-Aug-20 23:32N 44°25' E 008°47'0 0.0
2016-Aug-20 22:32N 44°25' E 008°47'0 0.0
2016-Aug-20 21:32N 44°25' E 008°47'0 0.0
2016-Aug-20 20:32N 44°25' E 008°47'0 0.0
2016-Aug-20 19:29N 44°25' E 008°47'0 0.0
2016-Aug-20 18:29N 44°25' E 008°47'0 0.0
2016-Aug-20 17:29N 44°25' E 008°47'0 0.0
2016-Aug-20 16:32N 44°25' E 008°47'0 0.0
2016-Aug-20 15:32N 44°25' E 008°47'0 0.0
2016-Aug-20 14:32N 44°25' E 008°47'0 0.0
2016-Aug-20 13:32N 44°25' E 008°47'0 0.0
2016-Aug-20 12:32N 44°25' E 008°47'0 0.0
2016-Aug-20 11:32N 44°25' E 008°47'0 0.0
2016-Aug-20 10:32N 44°25' E 008°47'0 0.0
2016-Aug-20 09:32N 44°25' E 008°47'0 0.0
2016-Aug-20 08:29N 44°25' E 008°47'0 0.0
2016-Aug-20 07:29N 44°25' E 008°47'0 0.0
2016-Aug-20 06:33N 44°25' E 008°47'1 1.3
2016-Aug-20 05:33N 44°24' E 008°46'0 0.2
2016-Aug-20 04:28N 44°24' E 008°46'0 0.0
2016-Aug-20 03:28N 44°24' E 008°46'0 0.0
2016-Aug-20 02:28N 44°24' E 008°46'0 0.0
2016-Aug-20 01:28N 44°24' E 008°46'0 0.0
2016-Aug-20 00:28N 44°24' E 008°46'0 0.0
2016-Aug-19 23:31N 44°24' E 008°46'0 0.0
2016-Aug-19 22:31N 44°24' E 008°46'0 0.0
2016-Aug-19 21:31N 44°24' E 008°46'0 0.0
2016-Aug-19 20:31N 44°24' E 008°46'0 0.0
2016-Aug-19 19:31N 44°24' E 008°46'3 2.7
2016-Aug-19 18:33N 44°22' E 008°44'1211.9
2016-Aug-19 17:33N 44°13' E 008°55'1312.7
2016-Aug-19 16:33N 44°05' E 009°08'1212.3
2016-Aug-19 15:33N 43°56' E 009°21'1212.0
2016-Aug-19 14:33N 43°48' E 009°33'1211.7
2016-Aug-19 13:33N 43°41' E 009°45'1212.0
2016-Aug-19 12:33N 43°32' E 009°57'1111.2
2016-Aug-19 11:33N 43°31' E 010°12'6 5.9
2016-Aug-19 10:33N 43°35' E 010°18'0 0.0
2016-Aug-19 09:25N 43°35' E 010°18'0 0.0
2016-Aug-19 08:28N 43°35' E 010°18'0 0.0
2016-Aug-19 07:31N 43°35' E 010°18'0 0.0
2016-Aug-19 06:31N 43°35' E 010°18'0 0.0
2016-Aug-19 05:31N 43°35' E 010°18'0 0.0
2016-Aug-19 04:31N 43°35' E 010°18'0 0.0
2016-Aug-19 03:31N 43°35' E 010°18'0 0.0
2016-Aug-19 02:28N 43°35' E 010°18'0 0.0
2016-Aug-19 01:28N 43°35' E 010°18'0 0.0
2016-Aug-19 00:25N 43°35' E 010°18'0 0.0
2016-Aug-18 23:31N 43°35' E 010°18'0 0.0
2016-Aug-18 22:31N 43°35' E 010°18'0 0.0
2016-Aug-18 21:31N 43°35' E 010°18'0 0.0
2016-Aug-18 20:34N 43°35' E 010°18'0 0.0
2016-Aug-18 19:31N 43°35' E 010°18'0 0.0
2016-Aug-18 18:31N 43°35' E 010°18'0 0.0
2016-Aug-18 17:25N 43°35' E 010°18'0 0.0
2016-Aug-18 16:31N 43°35' E 010°18'0 0.0
2016-Aug-18 15:28N 43°35' E 010°18'0 0.0
2016-Aug-18 14:31N 43°35' E 010°18'0 0.0
2016-Aug-18 13:31N 43°35' E 010°18'0 0.0
2016-Aug-18 12:31N 43°35' E 010°18'0 0.0
2016-Aug-18 11:31N 43°35' E 010°18'0 0.0
2016-Aug-18 10:31N 43°35' E 010°18'0 0.0
2016-Aug-18 09:31N 43°35' E 010°18'0 0.0
2016-Aug-18 08:28N 43°35' E 010°18'0 0.0
2016-Aug-18 07:34N 43°35' E 010°18'3 2.9
2016-Aug-18 06:33N 43°32' E 010°16'1 1.4
2016-Aug-18 05:32N 43°30' E 010°16'0 0.0
2016-Aug-18 04:32N 43°30' E 010°16'0 0.0
2016-Aug-18 03:32N 43°30' E 010°16'0 0.0
2016-Aug-18 02:32N 43°30' E 010°16'0 0.1
2016-Aug-18 01:33N 43°30' E 010°16'10 9.9
2016-Aug-18 00:33N 43°21' E 010°11'1212.4
2016-Aug-17 23:33N 43°09' E 010°07'24912.4
2016-Aug-17 03:24N 39°01' E 009°44'1212.6
2016-Aug-17 02:27N 38°58' E 009°29'1213.1
2016-Aug-17 01:33N 39°04' E 009°15'1010.1
2016-Aug-17 00:33N 39°11' E 009°06'2 2.0
2016-Aug-16 23:31N 39°13' E 009°05'0 0.0
2016-Aug-16 22:31N 39°13' E 009°05'0 0.0
2016-Aug-16 21:31N 39°13' E 009°05'0 0.0
2016-Aug-16 20:31N 39°13' E 009°05'0 0.0
2016-Aug-16 19:31N 39°13' E 009°05'0 0.0
2016-Aug-16 18:31N 39°13' E 009°05'0 0.0
2016-Aug-16 17:31N 39°13' E 009°05'0 0.0
2016-Aug-16 16:28N 39°13' E 009°05'0 0.0
2016-Aug-16 15:31N 39°13' E 009°05'0 0.0
2016-Aug-16 14:31N 39°13' E 009°05'0 0.0
2016-Aug-16 13:31N 39°13' E 009°05'0 0.0
2016-Aug-16 12:31N 39°13' E 009°05'0 0.0
2016-Aug-16 11:31N 39°13' E 009°05'0 0.0
2016-Aug-16 10:31N 39°13' E 009°05'0 0.0
2016-Aug-16 09:28N 39°13' E 009°05'  

Dump ship's entire track history